createdAt,value
2023-02-09T00:01:55.587Z,4.10
2023-02-09T00:04:57.127Z,4.18
2023-02-09T00:07:58.592Z,3.90
2023-02-09T00:11:00.126Z,3.97
2023-02-09T00:14:01.606Z,4.30
2023-02-09T00:17:04.256Z,3.92
2023-02-09T00:20:07.531Z,4.03
2023-02-09T00:23:09.018Z,3.85
2023-02-09T00:26:11.658Z,3.80
2023-02-09T00:29:21.489Z,3.72
2023-02-09T00:32:24.552Z,3.80
2023-02-09T00:35:26.047Z,3.65
2023-02-09T00:38:28.817Z,3.92
2023-02-09T00:41:49.163Z,3.53
2023-02-09T00:44:50.733Z,3.63
2023-02-09T00:47:52.430Z,3.85
2023-02-09T00:50:54.040Z,3.50
2023-02-09T00:53:55.645Z,3.70
2023-02-09T00:57:04.939Z,3.75
2023-02-09T01:00:09.681Z,3.60
2023-02-09T01:03:11.557Z,3.55
2023-02-09T01:06:13.036Z,3.60
2023-02-09T01:09:14.609Z,3.42
2023-02-09T01:12:16.194Z,3.60
2023-02-09T01:15:17.828Z,3.50
2023-02-09T01:18:19.352Z,3.70
2023-02-09T01:21:23.056Z,3.30
2023-02-09T01:24:24.595Z,3.63
2023-02-09T01:27:26.068Z,3.50
2023-02-09T01:30:28.036Z,3.15
2023-02-09T01:33:30.637Z,3.33
2023-02-09T01:36:32.748Z,3.17
2023-02-09T01:39:34.313Z,3.20
2023-02-09T01:42:36.078Z,3.13
2023-02-09T01:45:48.576Z,3.20
2023-02-09T01:48:54.070Z,3.25
2023-02-09T01:52:10.303Z,3.33
2023-02-09T01:55:19.835Z,3.25
2023-02-09T01:58:25.352Z,3.22
2023-02-09T02:01:27.254Z,3.13
2023-02-09T02:04:30.706Z,3.00
2023-02-09T02:07:46.747Z,3.10
2023-02-09T02:10:48.471Z,3.30
2023-02-09T02:13:50.194Z,3.20
2023-02-09T02:17:06.026Z,3.10
2023-02-09T02:20:42.756Z,2.72
2023-02-09T02:23:44.503Z,2.90
2023-02-09T02:26:56.486Z,3.50
2023-02-09T02:30:16.457Z,3.00
2023-02-09T02:33:39.065Z,3.30
2023-02-09T02:36:40.489Z,3.20
2023-02-09T02:39:57.525Z,3.13
2023-02-09T02:43:19.840Z,2.92
2023-02-09T02:46:44.607Z,2.95
2023-02-09T02:49:53.212Z,2.83
2023-02-09T02:52:57.777Z,2.45
2023-02-09T02:56:06.236Z,3.20
2023-02-09T02:59:28.599Z,2.80
2023-02-09T03:02:35.019Z,2.85
2023-02-09T03:05:37.447Z,2.75
2023-02-09T03:08:51.000Z,2.92
2023-02-09T03:11:57.451Z,2.92
2023-02-09T03:15:05.043Z,3.20
2023-02-09T03:18:34.664Z,2.80
2023-02-09T03:21:57.428Z,2.78
2023-02-09T03:25:02.144Z,2.75
2023-02-09T03:28:19.625Z,2.60
2023-02-09T03:31:22.344Z,2.92
2023-02-09T03:34:23.897Z,2.70
2023-02-09T03:37:25.491Z,2.75
2023-02-09T03:40:27.086Z,2.65
2023-02-09T03:43:47.311Z,3.00
2023-02-09T03:46:48.901Z,2.88
2023-02-09T03:49:50.430Z,2.85
2023-02-09T03:52:51.941Z,3.08
2023-02-09T03:55:53.424Z,2.70
2023-02-09T03:58:54.956Z,2.70
2023-02-09T04:01:58.597Z,2.60
2023-02-09T04:05:00.066Z,2.47
2023-02-09T04:08:01.584Z,2.90
2023-02-09T04:11:03.281Z,2.55
2023-02-09T04:14:05.178Z,2.80
2023-02-09T04:17:06.716Z,2.65
2023-02-09T04:20:08.614Z,2.70
2023-02-09T04:23:10.124Z,2.80
2023-02-09T04:26:12.059Z,2.50
2023-02-09T04:29:13.563Z,2.78
2023-02-09T04:32:15.058Z,2.80
2023-02-09T04:35:16.636Z,2.58
2023-02-09T04:38:20.483Z,2.90
2023-02-09T04:41:22.219Z,2.50
2023-02-09T04:44:23.677Z,2.60
2023-02-09T04:47:25.174Z,2.78
2023-02-09T04:50:26.620Z,2.75
2023-02-09T04:53:29.523Z,2.67
2023-02-09T04:56:30.973Z,2.70
2023-02-09T04:59:35.074Z,2.83
2023-02-09T05:02:37.795Z,2.55
2023-02-09T05:05:40.570Z,2.67
2023-02-09T05:08:42.129Z,2.50
2023-02-09T05:11:43.665Z,2.55
2023-02-09T05:14:45.200Z,2.63
2023-02-09T05:17:46.730Z,2.83
2023-02-09T05:20:48.965Z,2.45
2023-02-09T05:23:50.512Z,2.30
2023-02-09T05:26:51.987Z,2.50
2023-02-09T05:29:53.554Z,2.53
2023-02-09T05:32:55.477Z,2.70
2023-02-09T05:35:57.033Z,2.60
2023-02-09T05:38:58.548Z,2.60
2023-02-09T05:42:15.108Z,2.65
2023-02-09T05:45:16.582Z,2.40
2023-02-09T05:48:18.039Z,2.50
2023-02-09T05:51:19.502Z,2.60
2023-02-09T05:54:21.289Z,2.58
2023-02-09T05:57:22.899Z,2.40
2023-02-09T06:00:25.050Z,2.30
2023-02-09T06:03:26.707Z,2.63
2023-02-09T06:06:28.260Z,2.60
2023-02-09T06:09:29.791Z,2.70
2023-02-09T06:12:31.259Z,2.47
2023-02-09T06:15:32.858Z,2.50
2023-02-09T06:18:34.448Z,2.60
2023-02-09T06:21:35.925Z,2.72
2023-02-09T06:24:37.424Z,2.92
2023-02-09T06:27:38.917Z,2.67
2023-02-09T06:30:40.473Z,2.70
2023-02-09T06:33:42.098Z,2.67
2023-02-09T06:36:43.576Z,2.53
2023-02-09T06:39:45.051Z,2.50
2023-02-09T06:42:46.640Z,2.90
2023-02-09T06:45:48.233Z,2.70
2023-02-09T06:48:49.848Z,2.40
2023-02-09T06:51:51.515Z,2.40
2023-02-09T06:54:53.067Z,2.85
2023-02-09T06:57:55.367Z,2.65
2023-02-09T07:01:02.291Z,2.45
2023-02-09T07:04:03.901Z,2.72
2023-02-09T07:07:05.361Z,2.38
2023-02-09T07:10:08.197Z,2.58
2023-02-09T07:13:09.680Z,2.30
2023-02-09T07:16:15.952Z,2.47
2023-02-09T07:19:17.482Z,2.72
2023-02-09T07:22:18.986Z,2.25
2023-02-09T07:25:20.497Z,2.42
2023-02-09T07:28:22.437Z,2.25
2023-02-09T07:31:24.247Z,2.30
2023-02-09T07:34:25.875Z,2.50
2023-02-09T07:37:27.399Z,2.70
2023-02-09T07:40:28.950Z,2.80
2023-02-09T07:43:30.717Z,2.45
2023-02-09T07:46:32.778Z,2.50
2023-02-09T07:49:35.247Z,2.60
2023-02-09T07:52:36.691Z,2.50
2023-02-09T07:55:39.887Z,2.50
2023-02-09T07:58:41.390Z,2.40
2023-02-09T08:01:42.893Z,2.72
2023-02-09T08:04:44.874Z,2.58
2023-02-09T08:07:46.470Z,2.40
2023-02-09T08:10:48.171Z,2.38
2023-02-09T08:13:51.887Z,2.15
2023-02-09T08:17:18.417Z,2.40
2023-02-09T08:20:25.462Z,2.50
2023-02-09T08:23:31.000Z,2.58
2023-02-09T08:26:32.661Z,2.42
2023-02-09T08:29:34.206Z,2.60
2023-02-09T08:32:36.219Z,2.90
2023-02-09T08:35:37.658Z,2.58
2023-02-09T08:38:39.760Z,2.50
2023-02-09T08:41:41.284Z,2.55
2023-02-09T08:44:42.719Z,2.70
2023-02-09T08:47:44.166Z,2.60
2023-02-09T08:50:45.628Z,2.70
2023-02-09T08:53:52.287Z,2.45
2023-02-09T08:56:54.172Z,2.35
2023-02-09T08:59:55.598Z,2.80
2023-02-09T09:02:57.064Z,2.30
2023-02-09T09:06:03.706Z,3.05
2023-02-09T09:12:06.514Z,2.42
2023-02-09T09:15:08.325Z,2.50
2023-02-09T09:18:10.106Z,2.90
2023-02-09T09:21:13.154Z,2.80
2023-02-09T09:24:16.074Z,2.38
2023-02-09T09:27:17.542Z,2.75
2023-02-09T09:30:19.185Z,2.55
2023-02-09T09:33:20.855Z,2.70
2023-02-09T09:36:22.528Z,2.50
2023-02-09T09:39:25.604Z,2.40
2023-02-09T09:42:36.134Z,2.80
2023-02-09T09:45:38.606Z,2.58
2023-02-09T09:48:50.790Z,2.30
2023-02-09T09:52:13.281Z,2.40
2023-02-09T09:55:23.351Z,2.60
2023-02-09T09:58:25.336Z,2.40
2023-02-09T10:01:28.866Z,2.63
2023-02-09T10:04:30.480Z,2.70
2023-02-09T10:07:34.130Z,2.40
2023-02-09T10:10:51.155Z,2.30
2023-02-09T10:16:55.363Z,2.50
2023-02-09T10:20:05.595Z,2.22
2023-02-09T10:23:15.044Z,2.63
2023-02-09T10:26:25.809Z,2.20
2023-02-09T10:29:27.356Z,2.47
2023-02-09T10:32:43.207Z,2.50
2023-02-09T10:35:51.189Z,2.60
2023-02-09T10:39:03.230Z,2.38
2023-02-09T10:42:24.382Z,2.50
2023-02-09T10:45:37.581Z,2.33
2023-02-09T10:48:42.089Z,2.47
2023-02-09T10:51:43.574Z,2.20
2023-02-09T10:54:51.211Z,2.50
2023-02-09T10:58:12.615Z,2.30
2023-02-09T11:01:22.634Z,2.20
2023-02-09T11:04:26.975Z,2.22
2023-02-09T11:07:38.470Z,2.30
2023-02-09T11:10:45.277Z,2.20
2023-02-09T11:13:46.844Z,2.60
2023-02-09T11:17:26.812Z,2.50
2023-02-09T11:20:35.904Z,2.35
2023-02-09T11:23:37.358Z,2.17
2023-02-09T11:26:58.310Z,2.58
2023-02-09T11:30:22.102Z,2.15
2023-02-09T11:33:39.675Z,2.40
2023-02-09T11:36:53.324Z,2.30
2023-02-09T11:40:51.863Z,2.35
2023-02-09T11:43:55.753Z,2.22
2023-02-09T11:47:07.002Z,2.50
2023-02-09T11:50:15.375Z,2.10
2023-02-09T11:53:26.081Z,2.30
2023-02-09T11:56:28.723Z,2.40
2023-02-09T11:59:38.959Z,2.60
2023-02-09T12:02:57.183Z,2.13
2023-02-09T12:05:59.655Z,2.10
2023-02-09T12:09:08.362Z,2.30
2023-02-09T12:12:25.845Z,2.38
2023-02-09T12:15:50.498Z,2.80
2023-02-09T12:18:55.323Z,2.58
2023-02-09T12:21:56.873Z,2.35
2023-02-09T12:25:37.153Z,2.45
2023-02-09T12:28:40.574Z,1.98
2023-02-09T12:32:06.057Z,2.30
2023-02-09T12:35:37.338Z,2.35
2023-02-09T12:38:55.468Z,2.30
2023-02-09T12:42:00.938Z,2.20
2023-02-09T12:45:02.425Z,2.40
2023-02-09T12:48:09.829Z,2.30
2023-02-09T12:51:42.037Z,2.10
2023-02-09T12:54:52.630Z,2.08
2023-02-09T12:57:54.229Z,2.42
2023-02-09T13:00:56.604Z,2.20
2023-02-09T13:04:03.061Z,2.20
2023-02-09T13:07:11.829Z,2.63
2023-02-09T13:10:27.947Z,2.17
2023-02-09T13:13:33.038Z,2.63
2023-02-09T13:17:00.991Z,2.30
2023-02-09T13:20:45.659Z,2.20
2023-02-09T13:24:10.928Z,2.05
2023-02-09T13:27:23.579Z,2.40
2023-02-09T13:30:32.413Z,2.20
2023-02-09T13:33:52.481Z,2.60
2023-02-09T13:37:24.679Z,2.53
2023-02-09T13:40:35.024Z,2.60
2023-02-09T13:43:40.206Z,2.50
2023-02-09T13:46:57.626Z,2.50
2023-02-09T13:50:12.847Z,2.53
2023-02-09T13:53:18.048Z,2.92
2023-02-09T13:56:19.594Z,2.33
2023-02-09T13:59:21.313Z,2.38
2023-02-09T14:02:26.767Z,2.40
2023-02-09T14:05:48.748Z,2.70
2023-02-09T14:08:52.619Z,2.03
2023-02-09T14:12:01.635Z,2.47
2023-02-09T14:15:22.256Z,2.28
2023-02-09T14:18:27.891Z,2.55
2023-02-09T14:21:37.344Z,2.60
2023-02-09T14:24:44.759Z,2.40
2023-02-09T14:27:47.876Z,2.08
2023-02-09T14:30:50.492Z,2.30
2023-02-09T14:33:55.043Z,2.30
2023-02-09T14:37:04.258Z,2.50
2023-02-09T14:40:06.133Z,2.72
2023-02-09T14:43:10.760Z,2.33
2023-02-09T14:46:12.294Z,2.53
2023-02-09T14:49:13.902Z,2.30
2023-02-09T14:52:15.751Z,2.35
2023-02-09T14:55:21.020Z,2.38
2023-02-09T14:58:23.772Z,2.20
2023-02-09T15:01:25.315Z,2.38
2023-02-09T15:04:26.883Z,2.05
2023-02-09T15:07:37.473Z,2.50
2023-02-09T15:10:43.945Z,2.25
2023-02-09T15:13:46.028Z,2.30
2023-02-09T15:16:47.702Z,2.30
2023-02-09T15:19:49.320Z,2.30
2023-02-09T15:22:52.046Z,2.10
2023-02-09T15:25:53.538Z,2.30
2023-02-09T15:28:55.181Z,2.20
2023-02-09T15:31:56.670Z,2.17
2023-02-09T15:34:58.213Z,2.13
2023-02-09T15:38:01.411Z,2.33
2023-02-09T15:41:21.484Z,2.30
2023-02-09T15:44:41.306Z,2.30
2023-02-09T15:47:48.474Z,2.30
2023-02-09T15:50:50.729Z,2.40
2023-02-09T15:53:57.605Z,2.78
2023-02-09T15:57:01.030Z,2.63
2023-02-09T16:00:02.830Z,2.40
2023-02-09T16:03:14.549Z,2.50
2023-02-09T16:06:20.213Z,2.70
2023-02-09T16:09:28.873Z,2.38
2023-02-09T16:12:30.566Z,2.35
2023-02-09T16:15:32.056Z,2.50
2023-02-09T16:18:33.572Z,2.72
2023-02-09T16:21:35.694Z,2.50
2023-02-09T16:24:39.700Z,2.42
2023-02-09T16:27:41.204Z,2.30
2023-02-09T16:30:52.487Z,2.40
2023-02-09T16:33:54.012Z,2.35
2023-02-09T16:36:55.543Z,2.38
2023-02-09T16:39:58.350Z,2.67
2023-02-09T16:43:01.269Z,2.38
2023-02-09T16:46:04.626Z,2.20
2023-02-09T16:49:06.501Z,2.38
2023-02-09T16:52:21.855Z,2.45
2023-02-09T16:55:29.246Z,2.30
2023-02-09T16:58:31.158Z,2.45
2023-02-09T17:01:34.341Z,2.30
2023-02-09T17:04:37.736Z,2.28
2023-02-09T17:07:52.422Z,2.42
2023-02-09T17:10:56.304Z,2.30
2023-02-09T17:13:57.818Z,2.38
2023-02-09T17:16:59.458Z,2.17
2023-02-09T17:20:00.978Z,2.10
2023-02-09T17:23:02.495Z,2.22
2023-02-09T17:26:04.203Z,2.10
2023-02-09T17:29:06.085Z,2.08
2023-02-09T17:32:13.425Z,2.35
2023-02-09T17:35:15.902Z,2.20
2023-02-09T17:38:35.461Z,2.20
2023-02-09T17:41:44.536Z,2.30
2023-02-09T17:44:46.902Z,2.30
2023-02-09T17:47:56.768Z,2.45
2023-02-09T17:51:00.143Z,2.17
2023-02-09T17:54:02.798Z,2.10
2023-02-09T17:57:04.344Z,2.70
2023-02-09T18:00:06.293Z,2.50
2023-02-09T18:03:14.097Z,2.40
2023-02-09T18:06:19.638Z,2.40
2023-02-09T18:09:21.131Z,2.28
2023-02-09T18:12:26.389Z,1.98
2023-02-09T18:15:36.542Z,2.30
2023-02-09T18:18:38.496Z,2.08
2023-02-09T18:21:52.357Z,2.40
2023-02-09T18:24:59.563Z,2.20
2023-02-09T18:28:02.257Z,2.35
2023-02-09T18:31:06.277Z,2.40
2023-02-09T18:34:07.954Z,2.30
2023-02-09T18:37:09.423Z,2.30
2023-02-09T18:40:11.041Z,2.20
2023-02-09T18:43:14.549Z,2.45
2023-02-09T18:46:16.531Z,3.40
2023-02-09T18:49:18.066Z,4.90
2023-02-09T18:52:24.319Z,4.03
2023-02-09T18:55:30.803Z,4.03
2023-02-09T19:01:34.731Z,4.10
2023-02-09T19:04:36.270Z,3.58
2023-02-09T19:07:37.775Z,3.45
2023-02-09T19:10:41.536Z,3.30
2023-02-09T19:13:43.480Z,3.20
2023-02-09T19:16:45.109Z,3.05
2023-02-09T19:19:47.936Z,2.90
2023-02-09T19:22:51.559Z,2.78
2023-02-09T19:26:05.881Z,2.90
2023-02-09T19:29:07.400Z,2.72
2023-02-09T19:32:10.094Z,3.00
2023-02-09T19:35:11.600Z,2.85
2023-02-09T19:38:13.053Z,2.80
2023-02-09T19:41:14.528Z,2.53
2023-02-09T19:44:16.068Z,2.50
2023-02-09T19:47:17.596Z,2.38
2023-02-09T19:50:19.189Z,2.40
2023-02-09T19:53:20.781Z,2.50
2023-02-09T19:56:23.498Z,2.40
2023-02-09T19:59:25.225Z,2.70
2023-02-09T20:02:26.879Z,2.42
2023-02-09T20:05:28.460Z,2.40
2023-02-09T20:08:30.148Z,2.40
2023-02-09T20:11:33.127Z,2.20
2023-02-09T20:14:34.639Z,2.15
2023-02-09T20:17:36.407Z,2.83
2023-02-09T20:20:41.649Z,2.00
2023-02-09T20:23:45.664Z,2.40
2023-02-09T20:26:48.077Z,2.30
2023-02-09T20:29:49.967Z,2.20
2023-02-09T20:32:51.583Z,2.22
2023-02-09T20:35:53.079Z,2.22
2023-02-09T20:38:54.766Z,2.50
2023-02-09T20:42:16.664Z,2.30
2023-02-09T20:45:36.579Z,2.30
2023-02-09T20:48:38.114Z,2.00
2023-02-09T20:51:39.942Z,2.22
2023-02-09T20:54:41.408Z,2.30
2023-02-09T20:57:43.094Z,2.38
2023-02-09T21:00:44.869Z,2.10
2023-02-09T21:03:46.476Z,2.30
2023-02-09T21:06:48.452Z,1.90
2023-02-09T21:09:49.969Z,2.42
2023-02-09T21:12:51.458Z,2.30
2023-02-09T21:15:53.027Z,2.35
2023-02-09T21:18:54.526Z,2.15
2023-02-09T21:21:56.582Z,2.20
2023-02-09T21:24:58.150Z,2.15
2023-02-09T21:27:59.712Z,2.10
2023-02-09T21:31:01.555Z,2.42
2023-02-09T21:34:04.231Z,2.20
2023-02-09T21:37:08.861Z,2.20
2023-02-09T21:40:12.227Z,2.25
2023-02-09T21:43:13.832Z,2.45
2023-02-09T21:46:18.728Z,2.20
2023-02-09T21:49:20.966Z,2.33
2023-02-09T21:52:22.518Z,2.40
2023-02-09T21:55:24.016Z,2.22
2023-02-09T21:58:25.544Z,2.40
2023-02-09T22:01:27.108Z,2.10
2023-02-09T22:04:28.699Z,2.20
2023-02-09T22:07:30.902Z,2.10
2023-02-09T22:10:32.397Z,2.08
2023-02-09T22:13:34.072Z,2.15
2023-02-09T22:16:35.582Z,2.10
2023-02-09T22:19:37.522Z,2.05
2023-02-09T22:22:39.756Z,2.17
2023-02-09T22:25:41.454Z,2.00
2023-02-09T22:28:43.327Z,2.00
2023-02-09T22:31:45.411Z,2.20
2023-02-09T22:34:46.937Z,2.17
2023-02-09T22:37:48.554Z,1.90
2023-02-09T22:40:50.024Z,1.92
2023-02-09T22:43:57.256Z,2.03
2023-02-09T22:46:58.830Z,2.17
2023-02-09T22:50:00.377Z,2.20
2023-02-09T22:53:01.945Z,2.00
2023-02-09T22:56:04.182Z,2.00
2023-02-09T22:59:05.692Z,2.10
2023-02-09T23:02:07.195Z,1.95
2023-02-09T23:05:08.878Z,2.05
2023-02-09T23:08:10.393Z,1.90
2023-02-09T23:11:15.140Z,2.03
2023-02-09T23:14:17.069Z,2.00
2023-02-09T23:17:18.846Z,1.90
2023-02-09T23:20:21.357Z,1.85
2023-02-09T23:23:22.845Z,1.92
2023-02-09T23:26:24.765Z,2.10
2023-02-09T23:29:26.715Z,2.10
2023-02-09T23:32:28.268Z,1.90
2023-02-09T23:35:29.738Z,1.83
2023-02-09T23:38:31.521Z,2.38
2023-02-09T23:41:33.946Z,2.10
2023-02-09T23:44:35.424Z,1.80
2023-02-09T23:47:36.912Z,2.15
2023-02-09T23:50:38.402Z,1.77
2023-02-09T23:53:39.939Z,1.95
2023-02-09T23:56:41.490Z,2.28
2023-02-09T23:59:42.969Z,2.13
